createdAt,value
2017-05-04T00:02:00.305Z,40.70
2017-05-04T00:04:27.698Z,40.34
2017-05-04T00:06:55.125Z,41.60
2017-05-04T00:09:22.719Z,42.50
2017-05-04T00:11:50.342Z,38.04
2017-05-04T00:14:17.916Z,42.12
2017-05-04T00:16:45.447Z,46.34
2017-05-04T00:19:13.011Z,43.68
2017-05-04T00:21:41.221Z,43.44
2017-05-04T00:24:08.856Z,44.73
2017-05-04T00:26:36.320Z,41.76
2017-05-04T00:29:03.950Z,44.16
2017-05-04T00:31:31.633Z,47.94
2017-05-04T00:33:59.190Z,46.64
2017-05-04T00:36:26.626Z,45.26
2017-05-04T00:38:54.080Z,47.60
2017-05-04T00:41:22.369Z,44.34
2017-05-04T00:43:50.634Z,44.60
2017-05-04T00:46:18.940Z,44.13
2017-05-04T00:48:46.545Z,45.42
2017-05-04T00:51:14.047Z,48.46
2017-05-04T00:53:41.506Z,42.80
2017-05-04T00:56:08.937Z,47.30
2017-05-04T00:58:36.308Z,47.06
2017-05-04T01:01:03.957Z,48.20
2017-05-04T01:03:31.547Z,50.66
2017-05-04T01:05:59.097Z,48.68
2017-05-04T01:08:26.777Z,47.94
2017-05-04T01:10:54.385Z,47.28
2017-05-04T01:13:21.895Z,49.80
2017-05-04T01:15:49.307Z,46.34
2017-05-04T01:18:16.893Z,44.88
2017-05-04T01:20:44.339Z,48.58
2017-05-04T01:23:11.937Z,51.40
2017-05-04T01:25:39.358Z,47.18
2017-05-04T01:28:06.912Z,45.72
2017-05-04T01:30:35.028Z,47.04
2017-05-04T01:33:02.550Z,49.58
2017-05-04T01:35:30.097Z,46.88
2017-05-04T01:37:57.646Z,46.12
2017-05-04T01:40:25.217Z,51.08
2017-05-04T01:42:52.763Z,50.68
2017-05-04T01:45:20.227Z,49.64
2017-05-04T01:47:47.516Z,50.34
2017-05-04T01:50:15.073Z,53.04
2017-05-04T01:52:42.679Z,55.58
2017-05-04T01:55:10.178Z,61.84
2017-05-04T01:57:37.599Z,66.26
2017-05-04T02:00:05.247Z,68.55
2017-05-04T02:02:32.849Z,64.40
2017-05-04T02:05:00.482Z,56.75
2017-05-04T02:07:28.096Z,58.96
2017-05-04T02:09:55.702Z,54.72
2017-05-04T02:12:23.384Z,52.14
2017-05-04T02:14:51.014Z,46.96
2017-05-04T02:17:18.623Z,47.60
2017-05-04T02:19:46.217Z,48.58
2017-05-04T02:22:14.225Z,43.48
2017-05-04T02:24:41.749Z,40.42
2017-05-04T02:27:09.283Z,42.78
2017-05-04T02:29:36.774Z,46.96
2017-05-04T02:32:04.376Z,44.60
2017-05-04T02:34:31.879Z,48.62
2017-05-04T02:36:59.583Z,44.46
2017-05-04T02:39:27.588Z,47.58
2017-05-04T02:41:55.793Z,42.62
2017-05-04T02:44:23.359Z,43.38
2017-05-04T02:46:50.909Z,43.76
2017-05-04T02:49:18.537Z,41.88
2017-05-04T02:51:46.168Z,40.74
2017-05-04T02:54:13.709Z,42.52
2017-05-04T02:56:41.150Z,41.34
2017-05-04T02:59:08.761Z,38.08
2017-05-04T03:01:36.279Z,42.77
2017-05-04T03:04:03.869Z,41.48
2017-05-04T03:06:31.219Z,40.94
2017-05-04T03:08:59.481Z,45.84
2017-05-04T03:11:27.125Z,41.13
2017-05-04T03:13:55.302Z,37.18
2017-05-04T03:16:22.773Z,43.54
2017-05-04T03:18:50.989Z,37.96
2017-05-04T03:21:18.613Z,34.53
2017-05-04T03:23:46.631Z,40.83
2017-05-04T03:26:14.857Z,40.56
2017-05-04T03:28:42.364Z,39.32
2017-05-04T03:31:09.845Z,38.88
2017-05-04T03:33:37.387Z,34.46
2017-05-04T03:36:05.089Z,36.16
2017-05-04T03:38:32.503Z,38.52
2017-05-04T03:40:59.884Z,33.86
2017-05-04T03:43:27.393Z,34.66
2017-05-04T03:45:54.954Z,32.36
2017-05-04T03:48:22.307Z,35.02
2017-05-04T03:50:49.827Z,34.52
2017-05-04T03:53:17.281Z,31.84
2017-05-04T03:55:44.805Z,30.06
2017-05-04T03:58:13.002Z,28.38
2017-05-04T04:00:40.398Z,28.12
2017-05-04T04:03:07.773Z,24.04
2017-05-04T04:05:35.262Z,28.83
2017-05-04T04:08:02.844Z,21.97
2017-05-04T04:10:30.829Z,23.74
2017-05-04T04:12:59.034Z,25.34
2017-05-04T04:15:31.746Z,19.10
2017-05-04T04:17:59.371Z,23.45
2017-05-04T04:20:26.921Z,20.42
2017-05-04T04:22:54.393Z,20.45
2017-05-04T04:25:21.869Z,21.60
2017-05-04T04:27:49.321Z,17.65
2017-05-04T04:30:16.963Z,24.20
2017-05-04T04:32:44.681Z,20.82
2017-05-04T04:35:12.298Z,16.92
2017-05-04T04:37:39.924Z,18.68
2017-05-04T04:40:07.438Z,19.82
2017-05-04T04:42:34.962Z,15.10
2017-05-04T04:45:02.429Z,16.60
2017-05-04T04:47:29.975Z,15.73
2017-05-04T04:49:57.662Z,15.87
2017-05-04T04:52:24.995Z,15.72
2017-05-04T04:54:52.440Z,22.67
2017-05-04T04:57:19.925Z,16.93
2017-05-04T04:59:47.427Z,14.58
2017-05-04T05:02:14.889Z,13.62
2017-05-04T05:04:42.668Z,14.73
2017-05-04T05:07:10.165Z,13.87
2017-05-04T05:09:37.591Z,12.42
2017-05-04T05:12:05.142Z,14.30
2017-05-04T05:14:32.789Z,17.02
2017-05-04T05:17:00.401Z,18.83
2017-05-04T05:19:28.003Z,15.78
2017-05-04T05:21:59.933Z,19.00
2017-05-04T05:24:28.339Z,17.62
2017-05-04T05:26:56.397Z,14.47
2017-05-04T05:29:24.593Z,15.27
2017-05-04T05:31:52.150Z,18.28
2017-05-04T05:34:19.738Z,14.78
2017-05-04T05:36:47.193Z,13.87
2017-05-04T05:39:14.674Z,13.50
2017-05-04T05:41:42.090Z,15.48
2017-05-04T05:44:09.530Z,12.80
2017-05-04T05:46:37.117Z,13.88
2017-05-04T05:49:04.679Z,12.63
2017-05-04T05:51:32.207Z,14.78
2017-05-04T05:53:59.826Z,17.20
2017-05-04T05:56:27.319Z,13.15
2017-05-04T05:58:55.015Z,15.15
2017-05-04T06:01:22.641Z,14.87
2017-05-04T06:03:50.194Z,17.75
2017-05-04T06:06:17.484Z,17.75
2017-05-04T06:08:44.975Z,17.67
2017-05-04T06:11:12.501Z,15.72
2017-05-04T06:13:39.954Z,16.45
2017-05-04T06:16:07.501Z,18.97
2017-05-04T06:18:35.051Z,15.62
2017-05-04T06:21:02.508Z,15.13
2017-05-04T06:23:29.877Z,14.70
2017-05-04T06:25:58.134Z,15.25
2017-05-04T06:28:25.714Z,18.62
2017-05-04T06:30:53.209Z,17.57
2017-05-04T06:33:20.590Z,14.72
2017-05-04T06:35:48.765Z,13.46
2017-05-04T06:38:16.352Z,14.15
2017-05-04T06:40:43.826Z,15.95
2017-05-04T06:43:11.264Z,14.38
2017-05-04T06:45:38.681Z,14.52
2017-05-04T06:48:05.910Z,12.37
2017-05-04T06:50:33.209Z,15.16
2017-05-04T06:53:00.791Z,13.22
2017-05-04T06:55:28.331Z,11.83
2017-05-04T06:57:55.595Z,14.32
2017-05-04T07:00:23.029Z,12.58
2017-05-04T07:02:50.753Z,14.52
2017-05-04T07:05:18.391Z,14.75
2017-05-04T07:07:45.993Z,14.37
2017-05-04T07:10:13.376Z,20.52
2017-05-04T07:12:40.826Z,16.83
2017-05-04T07:15:08.492Z,21.57
2017-05-04T07:17:36.070Z,13.68
2017-05-04T07:20:03.581Z,14.67
2017-05-04T07:22:31.328Z,15.30
2017-05-04T07:24:58.809Z,13.95
2017-05-04T07:27:26.461Z,13.45
2017-05-04T07:29:53.905Z,13.82
2017-05-04T07:32:21.858Z,13.66
2017-05-04T07:34:49.475Z,14.90
2017-05-04T07:37:17.026Z,12.98
2017-05-04T07:39:44.516Z,13.00
2017-05-04T07:42:12.006Z,14.78
2017-05-04T07:44:39.579Z,15.92
2017-05-04T07:47:07.150Z,16.00
2017-05-04T07:49:34.644Z,15.42
2017-05-04T07:52:01.989Z,14.86
2017-05-04T07:54:29.565Z,17.17
2017-05-04T07:56:57.097Z,20.52
2017-05-04T07:59:24.513Z,14.52
2017-05-04T08:01:52.052Z,16.03
2017-05-04T08:04:19.743Z,16.57
2017-05-04T08:06:47.325Z,16.38
2017-05-04T08:09:14.983Z,16.62
2017-05-04T08:11:42.543Z,14.12
2017-05-04T08:14:10.165Z,13.10
2017-05-04T08:16:37.759Z,16.22
2017-05-04T08:19:05.193Z,15.64
2017-05-04T08:21:32.645Z,16.90
2017-05-04T08:24:00.221Z,15.13
2017-05-04T08:26:27.776Z,14.56
2017-05-04T08:28:55.501Z,16.88
2017-05-04T08:31:22.930Z,14.15
2017-05-04T08:33:50.441Z,15.20
2017-05-04T08:36:18.093Z,18.28
2017-05-04T08:38:45.555Z,14.03
2017-05-04T08:41:13.266Z,13.58
2017-05-04T08:43:40.922Z,14.52
2017-05-04T08:46:08.431Z,14.10
2017-05-04T08:48:35.886Z,14.18
2017-05-04T08:51:03.582Z,13.30
2017-05-04T08:53:31.184Z,14.68
2017-05-04T08:55:58.903Z,14.48
2017-05-04T08:58:26.423Z,14.98
2017-05-04T09:00:54.018Z,13.63
2017-05-04T09:03:21.410Z,13.08
2017-05-04T09:05:48.899Z,12.78
2017-05-04T09:08:16.574Z,13.62
2017-05-04T09:10:44.029Z,12.82
2017-05-04T09:13:17.461Z,12.52
2017-05-04T09:15:50.891Z,12.60
2017-05-04T09:18:24.944Z,12.64
2017-05-04T09:20:58.300Z,16.68
2017-05-04T09:23:31.591Z,15.02
2017-05-04T09:26:04.894Z,12.50
2017-05-04T09:28:38.307Z,15.56
2017-05-04T09:31:11.465Z,12.62
2017-05-04T09:33:44.678Z,17.67
2017-05-04T09:36:18.013Z,18.10
2017-05-04T09:38:51.397Z,14.36
2017-05-04T09:41:24.533Z,20.06
2017-05-04T09:43:52.037Z,21.37
2017-05-04T09:46:19.577Z,14.60
2017-05-04T09:48:46.967Z,15.40
2017-05-04T09:51:14.407Z,17.93
2017-05-04T09:53:41.813Z,14.44
2017-05-04T09:56:09.263Z,14.72
2017-05-04T09:58:36.794Z,13.82
2017-05-04T10:01:04.181Z,13.64
2017-05-04T10:03:31.750Z,15.14
2017-05-04T10:05:59.407Z,15.80
2017-05-04T10:08:26.862Z,14.18
2017-05-04T10:10:54.405Z,12.82
2017-05-04T10:13:22.022Z,14.00
2017-05-04T10:15:49.667Z,14.34
2017-05-04T10:18:17.004Z,14.94
2017-05-04T10:20:44.643Z,18.78
2017-05-04T10:23:12.317Z,15.14
2017-05-04T10:25:39.757Z,15.12
2017-05-04T10:28:07.147Z,16.84
2017-05-04T10:30:34.711Z,14.74
2017-05-04T10:33:02.230Z,15.68
2017-05-04T10:35:29.794Z,17.62
2017-05-04T10:37:57.341Z,16.38
2017-05-04T10:40:25.020Z,17.16
2017-05-04T10:42:52.501Z,16.50
2017-05-04T10:45:25.741Z,17.52
2017-05-04T10:47:53.502Z,17.42
2017-05-04T10:50:21.216Z,17.32
2017-05-04T10:52:48.642Z,17.72
2017-05-04T10:55:16.224Z,16.38
2017-05-04T10:57:43.650Z,17.04
2017-05-04T11:00:11.136Z,15.92
2017-05-04T11:02:39.289Z,16.58
2017-05-04T11:05:06.945Z,18.40
2017-05-04T11:07:34.493Z,19.16
2017-05-04T11:10:02.980Z,18.20
2017-05-04T11:12:30.445Z,18.52
2017-05-04T11:14:58.037Z,19.14
2017-05-04T11:17:25.576Z,18.06
2017-05-04T11:19:53.155Z,18.74
2017-05-04T11:22:21.223Z,18.66
2017-05-04T11:24:48.670Z,18.88
2017-05-04T11:27:16.221Z,16.22
2017-05-04T11:29:43.744Z,18.34
2017-05-04T11:32:11.230Z,19.62
2017-05-04T11:34:38.657Z,18.48
2017-05-04T11:37:06.223Z,16.86
2017-05-04T11:39:33.781Z,17.64
2017-05-04T11:42:01.261Z,18.24
2017-05-04T11:44:28.872Z,21.00
2017-05-04T11:46:56.449Z,20.58
2017-05-04T11:49:23.937Z,21.72
2017-05-04T11:51:51.476Z,19.38
2017-05-04T11:54:19.678Z,18.82
2017-05-04T11:56:47.189Z,19.80
2017-05-04T11:59:14.455Z,18.94
2017-05-04T12:01:42.623Z,19.58
2017-05-04T12:04:10.340Z,19.44
2017-05-04T12:06:37.643Z,20.32
2017-05-04T12:09:06.047Z,19.62
2017-05-04T12:11:33.461Z,18.90
2017-05-04T12:14:01.155Z,19.34
2017-05-04T12:16:28.715Z,20.38
2017-05-04T12:18:56.381Z,18.42
2017-05-04T12:21:23.907Z,23.42
2017-05-04T12:23:51.368Z,18.70
2017-05-04T12:26:18.681Z,20.50
2017-05-04T12:28:46.070Z,19.08
2017-05-04T12:31:13.783Z,22.62
2017-05-04T12:33:41.219Z,20.34
2017-05-04T12:36:08.750Z,21.52
2017-05-04T12:38:37.011Z,19.18
2017-05-04T12:41:04.598Z,19.38
2017-05-04T12:43:32.781Z,23.76
2017-05-04T12:46:00.606Z,23.82
2017-05-04T12:48:28.781Z,22.78
2017-05-04T12:50:56.609Z,20.34
2017-05-04T12:53:24.203Z,22.10
2017-05-04T12:55:51.749Z,22.14
2017-05-04T12:58:19.370Z,22.60
2017-05-04T13:00:46.765Z,23.44
2017-05-04T13:03:14.473Z,25.50
2017-05-04T13:05:41.893Z,18.64
2017-05-04T13:08:09.527Z,23.78
2017-05-04T13:10:37.037Z,17.76
2017-05-04T13:13:04.723Z,20.42
2017-05-04T13:15:32.159Z,17.30
2017-05-04T13:17:59.595Z,17.58
2017-05-04T13:20:27.145Z,18.84
2017-05-04T13:22:54.429Z,17.56
2017-05-04T13:25:21.863Z,16.94
2017-05-04T13:27:49.567Z,18.12
2017-05-04T13:30:17.169Z,16.38
2017-05-04T13:32:44.596Z,17.04
2017-05-04T13:35:12.303Z,16.52
2017-05-04T13:37:39.838Z,15.52
2017-05-04T13:40:07.796Z,15.84
2017-05-04T13:42:35.523Z,15.96
2017-05-04T13:45:02.989Z,16.98
2017-05-04T13:47:30.586Z,15.66
2017-05-04T13:49:57.991Z,17.34
2017-05-04T13:52:25.509Z,17.60
2017-05-04T13:54:53.301Z,18.46
2017-05-04T13:57:20.842Z,15.08
2017-05-04T13:59:48.286Z,15.26
2017-05-04T14:02:15.841Z,16.84
2017-05-04T14:04:43.293Z,18.12
2017-05-04T14:07:10.967Z,15.36
2017-05-04T14:09:38.465Z,15.12
2017-05-04T14:12:05.972Z,12.44
2017-05-04T14:14:33.668Z,14.06
2017-05-04T14:17:01.142Z,14.34
2017-05-04T14:19:29.239Z,15.28
2017-05-04T14:21:56.845Z,17.28
2017-05-04T14:24:24.439Z,14.88
2017-05-04T14:26:52.088Z,12.60
2017-05-04T14:29:19.574Z,14.00
2017-05-04T14:31:47.157Z,18.88
2017-05-04T14:34:14.837Z,15.22
2017-05-04T14:36:42.321Z,17.10
2017-05-04T14:39:09.745Z,16.22
2017-05-04T14:41:37.200Z,16.40
2017-05-04T14:44:04.688Z,16.50
2017-05-04T14:46:32.113Z,17.83
2017-05-04T14:48:59.418Z,16.32
2017-05-04T14:51:26.949Z,16.20
2017-05-04T14:53:53.615Z,15.13
2017-05-04T14:56:21.020Z,16.40
2017-05-04T14:58:49.183Z,13.88
2017-05-04T15:01:16.633Z,13.54
2017-05-04T15:03:44.233Z,13.92
2017-05-04T15:06:11.842Z,13.22
2017-05-04T15:08:39.445Z,15.12
2017-05-04T15:11:07.004Z,13.38
2017-05-04T15:13:34.433Z,14.18
2017-05-04T15:16:01.898Z,15.80
2017-05-04T15:18:29.499Z,18.48
2017-05-04T15:20:57.063Z,16.25
2017-05-04T15:23:25.229Z,18.10
2017-05-04T15:25:52.844Z,18.13
2017-05-04T15:28:21.233Z,17.20
2017-05-04T15:30:49.390Z,16.07
2017-05-04T15:33:16.882Z,17.90
2017-05-04T15:35:44.438Z,15.88
2017-05-04T15:38:11.998Z,19.50
2017-05-04T15:40:39.655Z,16.60
2017-05-04T15:43:07.023Z,17.42
2017-05-04T15:45:34.643Z,17.97
2017-05-04T15:48:02.148Z,18.30
2017-05-04T15:50:29.683Z,20.13
2017-05-04T15:52:57.309Z,18.77
2017-05-04T15:55:24.967Z,18.68
2017-05-04T15:57:52.505Z,18.03
2017-05-04T16:00:19.861Z,16.03
2017-05-04T16:02:47.461Z,17.25
2017-05-04T16:05:15.044Z,18.33
2017-05-04T16:07:42.740Z,16.98
2017-05-04T16:10:10.307Z,16.23
2017-05-04T16:12:37.857Z,15.65
2017-05-04T16:15:05.162Z,17.77
2017-05-04T16:17:32.532Z,16.32
2017-05-04T16:20:00.052Z,17.43
2017-05-04T16:22:27.581Z,16.97
2017-05-04T16:24:55.087Z,18.08
2017-05-04T16:27:22.671Z,15.47
2017-05-04T16:29:50.165Z,16.00
2017-05-04T16:32:18.577Z,13.82
2017-05-04T16:34:45.982Z,14.97
2017-05-04T16:37:13.687Z,14.50
2017-05-04T16:39:41.367Z,14.98
2017-05-04T16:42:08.913Z,15.70
2017-05-04T16:44:36.545Z,15.67
2017-05-04T16:47:04.105Z,14.95
2017-05-04T16:49:32.546Z,15.62
2017-05-04T16:51:59.943Z,12.73
2017-05-04T16:54:27.257Z,11.87
2017-05-04T16:56:54.723Z,13.03
2017-05-04T16:59:22.381Z,13.88
2017-05-04T17:01:49.971Z,14.53
2017-05-04T17:04:17.671Z,16.28
2017-05-04T17:06:45.456Z,14.75
2017-05-04T17:09:13.140Z,14.53
2017-05-04T17:11:40.597Z,18.03
2017-05-04T17:14:08.289Z,18.18
2017-05-04T17:16:35.751Z,19.57
2017-05-04T17:19:03.299Z,15.33
2017-05-04T17:21:30.933Z,16.92
2017-05-04T17:23:58.570Z,14.77
2017-05-04T17:26:26.149Z,13.10
2017-05-04T17:28:53.681Z,12.88
2017-05-04T17:31:21.092Z,11.88
2017-05-04T17:33:48.659Z,13.22
2017-05-04T17:36:16.135Z,12.18
2017-05-04T17:38:44.080Z,11.77
2017-05-04T17:41:11.501Z,12.60
2017-05-04T17:43:39.479Z,15.77
2017-05-04T17:46:06.895Z,11.95
2017-05-04T17:48:34.333Z,11.65
2017-05-04T17:51:02.037Z,11.27
2017-05-04T17:53:29.611Z,12.65
2017-05-04T17:55:57.143Z,10.75
2017-05-04T17:58:24.409Z,11.48
2017-05-04T18:00:51.934Z,11.27
2017-05-04T18:03:19.431Z,11.72
2017-05-04T18:05:47.073Z,11.00
2017-05-04T18:08:14.538Z,10.38
2017-05-04T18:10:42.085Z,10.42
2017-05-04T18:13:09.521Z,11.37
2017-05-04T18:15:36.939Z,10.32
2017-05-04T18:18:05.063Z,9.17
2017-05-04T18:20:32.668Z,9.72
2017-05-04T18:23:00.233Z,9.85
2017-05-04T18:25:27.800Z,9.52
2017-05-04T18:27:55.282Z,10.73
2017-05-04T18:30:22.763Z,11.78
2017-05-04T18:32:50.218Z,8.93
2017-05-04T18:35:18.373Z,8.88
2017-05-04T18:37:45.838Z,9.72
2017-05-04T18:40:13.197Z,15.30
2017-05-04T18:42:40.729Z,11.63
2017-05-04T18:45:08.289Z,10.85
2017-05-04T18:47:36.059Z,12.83
2017-05-04T18:50:03.672Z,12.72
2017-05-04T18:52:31.810Z,10.40
2017-05-04T18:54:59.290Z,10.47
2017-05-04T18:57:26.791Z,12.00
2017-05-04T18:59:54.327Z,14.60
2017-05-04T19:02:22.505Z,9.82
2017-05-04T19:04:50.017Z,11.48
2017-05-04T19:07:17.627Z,12.72
2017-05-04T19:09:45.168Z,11.35
2017-05-04T19:12:12.733Z,9.93
2017-05-04T19:14:40.357Z,10.92
2017-05-04T19:17:07.926Z,10.07
2017-05-04T19:19:35.490Z,11.37
2017-05-04T19:22:03.167Z,8.58
2017-05-04T19:24:30.764Z,8.72
2017-05-04T19:26:58.339Z,7.92
2017-05-04T19:29:25.898Z,7.70
2017-05-04T19:31:54.057Z,8.73
2017-05-04T19:34:21.487Z,7.43
2017-05-04T19:36:48.759Z,7.82
2017-05-04T19:39:16.191Z,10.02
2017-05-04T19:41:43.645Z,8.58
2017-05-04T19:44:11.216Z,7.07
2017-05-04T19:46:38.666Z,8.07
2017-05-04T19:49:06.246Z,8.77
2017-05-04T19:54:01.551Z,10.28
2017-05-04T19:56:29.265Z,9.98
2017-05-04T19:58:56.809Z,9.33
2017-05-04T20:01:24.361Z,10.60
2017-05-04T20:03:51.917Z,8.57
2017-05-04T20:06:19.466Z,11.78
2017-05-04T20:08:47.031Z,8.58
2017-05-04T20:11:15.309Z,9.35
2017-05-04T20:13:42.882Z,9.47
2017-05-04T20:16:10.423Z,10.42
2017-05-04T20:18:38.653Z,9.52
2017-05-04T20:21:06.199Z,10.32
2017-05-04T20:23:40.662Z,10.68
2017-05-04T20:26:08.334Z,10.97
2017-05-04T20:28:35.749Z,12.25
2017-05-04T20:31:03.290Z,14.32
2017-05-04T20:33:30.686Z,11.87
2017-05-04T20:35:59.015Z,12.83
2017-05-04T20:38:26.597Z,13.70
2017-05-04T20:40:54.188Z,14.93
2017-05-04T20:43:21.668Z,14.70
2017-05-04T20:45:49.132Z,13.98
2017-05-04T20:48:16.601Z,15.30
2017-05-04T20:50:44.097Z,13.68
2017-05-04T20:53:11.568Z,15.23
2017-05-04T20:55:39.220Z,16.08
2017-05-04T20:58:06.828Z,16.12
2017-05-04T21:00:34.230Z,17.82
2017-05-04T21:03:01.761Z,17.95
2017-05-04T21:05:29.733Z,18.98
2017-05-04T21:07:57.485Z,18.18
2017-05-04T21:10:24.969Z,19.53
2017-05-04T21:12:52.629Z,22.68
2017-05-04T21:15:20.251Z,20.08
2017-05-04T21:17:47.866Z,34.32
2017-05-04T21:20:15.323Z,22.92
2017-05-04T21:22:42.860Z,24.45
2017-05-04T21:25:10.555Z,26.73
2017-05-04T21:27:37.977Z,28.40
2017-05-04T21:30:05.597Z,25.95
2017-05-04T21:32:32.991Z,28.38
2017-05-04T21:35:00.508Z,28.45
2017-05-04T21:37:28.018Z,30.32
2017-05-04T21:39:55.605Z,34.98
2017-05-04T21:42:22.981Z,32.47
2017-05-04T21:44:50.486Z,30.57
2017-05-04T21:47:17.976Z,31.90
2017-05-04T21:49:45.398Z,28.73
2017-05-04T21:52:12.974Z,29.88
2017-05-04T21:54:40.406Z,27.17
2017-05-04T21:57:07.841Z,26.48
2017-05-04T21:59:35.360Z,21.93
2017-05-04T22:02:02.758Z,22.33
2017-05-04T22:04:30.249Z,25.97
2017-05-04T22:06:57.700Z,24.10
2017-05-04T22:09:25.867Z,22.30
2017-05-04T22:11:53.301Z,24.87
2017-05-04T22:14:21.628Z,21.28
2017-05-04T22:16:49.255Z,20.37
2017-05-04T22:19:16.644Z,23.53
2017-05-04T22:21:44.159Z,23.23
2017-05-04T22:24:11.873Z,22.03
2017-05-04T22:26:39.505Z,25.90
2017-05-04T22:29:06.933Z,26.30
2017-05-04T22:31:34.395Z,26.67
2017-05-04T22:34:01.953Z,29.23
2017-05-04T22:36:29.516Z,23.00
2017-05-04T22:38:56.962Z,26.43
2017-05-04T22:41:24.418Z,29.72
2017-05-04T22:43:51.970Z,26.92
2017-05-04T22:46:19.709Z,32.68
2017-05-04T22:48:47.199Z,33.15
2017-05-04T22:51:21.624Z,36.15
2017-05-04T22:53:48.962Z,32.75
2017-05-04T22:56:16.413Z,29.37
2017-05-04T22:58:43.988Z,28.97
2017-05-04T23:01:11.411Z,32.28
2017-05-04T23:03:38.906Z,32.18
2017-05-04T23:06:06.467Z,29.05
2017-05-04T23:08:33.914Z,34.08
2017-05-04T23:11:01.358Z,31.22
2017-05-04T23:13:28.972Z,31.18
2017-05-04T23:15:56.484Z,36.03
2017-05-04T23:18:24.041Z,24.68
2017-05-04T23:20:51.553Z,35.63
2017-05-04T23:23:19.087Z,29.90
2017-05-04T23:25:46.608Z,29.75
2017-05-04T23:28:14.270Z,30.75
2017-05-04T23:30:41.988Z,35.65
2017-05-04T23:33:09.485Z,29.67
2017-05-04T23:35:37.046Z,36.32
2017-05-04T23:38:04.593Z,34.23
2017-05-04T23:40:31.989Z,32.75
2017-05-04T23:42:59.615Z,39.63
2017-05-04T23:45:27.152Z,41.60
2017-05-04T23:47:55.316Z,41.03
2017-05-04T23:50:22.911Z,41.67
2017-05-04T23:52:50.472Z,57.85
2017-05-04T23:55:18.138Z,50.38
2017-05-04T23:57:45.591Z,42.90
